Time;durP1;ratioP1;P1;durP2;ratioP2;P2;SDS_P1;SDS_P2;PMS_P1;PMS_P2;Temp;Humidity;BMP_temperature;BMP_pressure;BME280_temperature;BME280_humidity;BME280_pressure;Samples;Min_cycle;Max_cycle;Signal;HPM_P1;HPM_P2
2021/05/24 00:01:51;;;;;;;1.43;1.30;;;;;;;8.85;64.06;98977.78;5091618;28;39850;-76
2021/05/24 00:04:19;;;;;;;2.13;1.50;;;;;;;8.81;64.37;98979.72;5108058;28;40592;-75
2021/05/24 00:06:46;;;;;;;2.43;1.47;;;;;;;8.77;64.60;98985.28;5090689;28;43151;-75
2021/05/24 00:09:14;;;;;;;2.43;1.80;;;;;;;8.69;64.89;98975.09;5106402;28;42468;-75
2021/05/24 00:11:41;;;;;;;5.23;3.47;;;;;;;8.64;67.33;98966.59;5091905;28;39318;-75
2021/05/24 00:14:12;;;;;;;2.83;1.77;;;;;;;8.60;67.32;98965.88;5107173;28;40561;-75
2021/05/24 00:16:39;;;;;;;4.67;3.00;;;;;;;8.54;67.72;98965.34;5106989;28;43152;-76
2021/05/24 00:19:07;;;;;;;2.83;2.47;;;;;;;8.49;67.46;98959.47;5107896;28;42909;-76
2021/05/24 00:21:34;;;;;;;2.80;2.30;;;;;;;8.47;67.00;98958.69;5090402;28;39147;-75
2021/05/24 00:24:02;;;;;;;3.23;2.20;;;;;;;8.44;66.58;98959.69;5090977;28;41024;-75
2021/05/24 00:26:29;;;;;;;2.50;2.23;;;;;;;8.42;66.40;98965.97;5108953;27;42765;-76
2021/05/24 00:28:56;;;;;;;3.53;2.40;;;;;;;8.41;66.01;98959.00;5109715;27;42995;-76
2021/05/24 00:31:24;;;;;;;2.17;1.70;;;;;;;8.39;66.16;98952.97;5109533;27;40644;-76
2021/05/24 00:33:51;;;;;;;2.67;2.23;;;;;;;8.35;65.82;98946.13;5109207;27;41677;-76
2021/05/24 00:36:18;;;;;;;2.77;2.20;;;;;;;8.36;65.85;98950.47;5091529;28;41590;-75
2021/05/24 00:39:00;;;;;;;2.50;2.30;;;;;;;8.33;65.89;98932.16;5092477;28;41092;-76
2021/05/24 00:41:28;;;;;;;2.60;2.40;;;;;;;8.26;66.03;98929.81;5108526;28;39620;-75
2021/05/24 00:43:55;;;;;;;2.70;1.80;;;;;;;8.23;66.02;98922.06;5108816;27;41564;-75
2021/05/24 00:46:22;;;;;;;3.87;2.40;;;;;;;8.17;65.78;98927.63;5108289;28;43467;-75
2021/05/24 00:48:49;;;;;;;3.00;2.30;;;;;;;8.16;65.66;98922.47;5107875;28;42146;-75
2021/05/24 00:51:16;;;;;;;3.77;2.20;;;;;;;8.12;65.84;98913.00;5090530;28;39001;-76
2021/05/24 00:53:44;;;;;;;2.73;2.20;;;;;;;8.09;65.68;98913.16;5107256;28;41846;-76
2021/05/24 00:56:11;;;;;;;3.97;2.30;;;;;;;8.06;65.76;98906.22;5089579;28;41385;-76
2021/05/24 00:58:39;;;;;;;2.40;1.93;;;;;;;8.00;65.74;98908.34;5090848;28;42117;-76
2021/05/24 01:01:07;;;;;;;2.70;1.87;;;;;;;8.01;65.60;98910.91;5109138;27;39938;-75
2021/05/24 01:03:34;;;;;;;2.70;2.03;;;;;;;7.90;65.58;98894.78;5109016;27;41459;-75
2021/05/24 01:06:01;;;;;;;1.97;1.77;;;;;;;7.94;65.35;98902.44;5091218;28;42809;-75
2021/05/24 01:08:28;;;;;;;2.27;1.70;;;;;;;7.91;65.58;98896.50;5108998;27;42074;-76
2021/05/24 01:10:55;;;;;;;1.63;1.53;;;;;;;7.85;65.41;98884.47;5089811;28;38993;-75
2021/05/24 01:13:23;;;;;;;2.50;1.80;;;;;;;7.74;65.67;98878.03;5090309;28;41575;-75
2021/05/24 01:15:51;;;;;;;1.70;1.60;;;;;;;7.76;65.67;98890.22;5106949;28;42430;-75
2021/05/24 01:18:18;;;;;;;2.07;1.70;;;;;;;7.77;65.87;98888.44;5091120;28;41657;-75
2021/05/24 01:20:46;;;;;;;2.33;1.80;;;;;;;7.75;65.84;98892.91;5107885;27;40536;-75
2021/05/24 01:23:18;;;;;;;2.67;2.07;;;;;;;7.67;65.58;98887.16;5107160;28;42485;-76
2021/05/24 01:25:47;;;;;;;2.43;1.70;;;;;;;7.69;65.72;98890.59;5106334;28;42473;-76
2021/05/24 01:28:17;;;;;;;2.00;1.70;;;;;;;7.64;66.22;98890.84;5107436;28;42727;-75
2021/05/24 01:30:46;;;;;;;1.90;1.67;;;;;;;7.61;65.75;98895.41;5107862;27;39960;-75
2021/05/24 01:33:14;;;;;;;1.53;1.43;;;;;;;7.52;65.76;98883.53;5107769;28;41575;-75
2021/05/24 01:35:41;;;;;;;1.70;1.57;;;;;;;7.49;66.08;98879.25;5107056;28;42662;-76
2021/05/24 01:38:09;;;;;;;2.03;1.50;;;;;;;7.52;65.98;98891.44;5107344;28;42692;-75
2021/05/24 01:40:39;;;;;;;2.00;1.80;;;;;;;7.49;66.23;98884.53;5091085;28;40257;-75
2021/05/24 01:43:06;;;;;;;3.40;1.67;;;;;;;7.40;66.42;98869.19;5089482;28;40144;-75
2021/05/24 01:45:33;;;;;;;1.60;1.50;;;;;;;7.45;66.30;98876.84;5107626;28;41868;-75
2021/05/24 01:48:01;;;;;;;4.47;1.73;;;;;;;7.39;66.57;98862.22;5108481;27;42327;-75
2021/05/24 01:50:29;;;;;;;3.13;2.83;;;;;;;7.39;66.51;98867.47;5108535;28;39859;-76
2021/05/24 01:52:56;;;;;;;1.90;1.70;;;;;;;7.36;66.66;98851.81;5091190;28;41435;-76
2021/05/24 01:55:23;;;;;;;2.37;1.50;;;;;;;7.40;66.51;98858.66;5091996;28;41601;-76
2021/05/24 01:57:53;;;;;;;3.13;1.70;;;;;;;7.38;66.55;98855.25;5109769;27;42048;-76
2021/05/24 02:00:22;;;;;;;2.03;1.33;;;;;;;7.36;66.37;98857.09;5107558;28;38818;-76
2021/05/24 02:02:52;;;;;;;1.40;1.30;;;;;;;7.33;66.59;98862.50;5108725;27;41651;-75
2021/05/24 02:05:21;;;;;;;1.63;1.40;;;;;;;7.30;66.70;98862.63;5110716;28;42688;-75
2021/05/24 02:07:50;;;;;;;3.37;1.50;;;;;;;7.28;66.60;98864.53;5110023;28;41746;-75
2021/05/24 02:10:19;;;;;;;1.87;1.50;;;;;;;7.19;66.60;98860.53;5110977;28;41704;-76
2021/05/24 02:12:47;;;;;;;1.50;1.40;;;;;;;7.21;66.56;98873.63;5110664;28;41461;-75
2021/05/24 02:15:18;;;;;;;1.60;1.47;;;;;;;7.19;66.77;98864.94;5110946;27;42919;-75
2021/05/24 02:17:45;;;;;;;1.60;1.50;;;;;;;7.18;67.55;98852.72;5109955;28;41491;-76
2021/05/24 02:20:17;;;;;;;1.57;1.47;;;;;;;7.16;67.22;98849.31;5094065;28;38988;-75
2021/05/24 02:22:44;;;;;;;1.97;1.43;;;;;;;7.14;67.30;98832.75;5110397;27;41817;-75
2021/05/24 02:25:12;;;;;;;1.93;1.30;;;;;;;7.14;67.29;98843.28;5093904;28;42983;-75
2021/05/24 02:27:39;;;;;;;1.67;1.20;;;;;;;7.13;67.27;98831.03;5092703;28;41054;-75
2021/05/24 02:30:08;;;;;;;3.37;1.70;;;;;;;7.12;67.26;98830.19;5110869;28;39817;-76
2021/05/24 02:32:38;;;;;;;1.70;1.60;;;;;;;7.12;67.42;98827.53;5109983;28;42417;-75
2021/05/24 02:35:06;;;;;;;1.70;1.60;;;;;;;7.09;67.46;98816.28;5108979;28;43381;-75
2021/05/24 02:37:33;;;;;;;1.33;1.23;;;;;;;6.99;67.07;98807.16;5109863;28;42299;-76
2021/05/24 02:40:01;;;;;;;2.60;1.20;;;;;;;6.99;67.31;98815.91;5110923;27;40415;-76
2021/05/24 02:42:28;;;;;;;1.60;1.50;;;;;;;7.04;67.75;98818.31;5111306;27;41645;-75
2021/05/24 02:44:55;;;;;;;1.50;1.37;;;;;;;6.99;67.64;98810.63;5109300;28;43010;-76
2021/05/24 02:47:22;;;;;;;2.33;1.60;;;;;;;7.02;67.74;98812.28;5109997;28;41897;-76
2021/05/24 02:49:50;;;;;;;3.20;2.07;;;;;;;6.97;67.86;98809.00;5111229;27;39724;-75
2021/05/24 02:52:17;;;;;;;1.80;1.50;;;;;;;6.98;68.18;98813.34;5109165;28;41431;-75
2021/05/24 02:54:44;;;;;;;1.43;1.33;;;;;;;6.95;68.00;98808.22;5109316;28;43460;-75
2021/05/24 02:57:12;;;;;;;3.10;1.47;;;;;;;6.93;68.02;98810.06;5109181;28;42524;-75
2021/05/24 02:59:39;;;;;;;1.87;1.30;;;;;;;6.89;68.06;98805.91;5092841;28;39420;-75
2021/05/24 03:02:06;;;;;;;1.60;1.50;;;;;;;6.88;68.07;98804.19;5109778;28;41486;-75
2021/05/24 03:04:34;;;;;;;1.40;1.30;;;;;;;6.87;68.50;98797.22;5092530;28;42217;-76
2021/05/24 03:07:02;;;;;;;2.07;1.47;;;;;;;6.85;68.25;98787.63;5108885;28;42008;-75
2021/05/24 03:09:29;;;;;;;1.50;1.40;;;;;;;6.84;68.39;98788.53;5109231;28;40645;-76
2021/05/24 03:11:56;;;;;;;1.63;1.53;;;;;;;6.83;68.23;98789.47;5108812;28;41622;-75
2021/05/24 03:14:23;;;;;;;1.63;1.20;;;;;;;6.82;68.09;98798.28;5108196;28;42473;-75
2021/05/24 03:16:50;;;;;;;1.87;1.70;;;;;;;6.82;67.93;98793.00;5108156;28;41000;-76
2021/05/24 03:19:18;;;;;;;2.50;1.60;;;;;;;6.81;68.08;98791.31;5111199;27;39764;-75
2021/05/24 03:21:45;;;;;;;2.70;1.60;;;;;;;6.79;68.22;98803.72;5109375;27;41736;-75
2021/05/24 03:24:13;;;;;;;1.63;1.30;;;;;;;6.84;68.27;98799.06;5110691;27;43210;-75
2021/05/24 03:26:40;;;;;;;2.00;1.80;;;;;;;6.87;68.63;98797.22;5109494;27;42966;-76
2021/05/24 03:29:07;;;;;;;2.00;1.60;;;;;;;6.90;68.27;98795.28;5110566;27;39917;-75
2021/05/24 03:31:35;;;;;;;3.37;1.90;;;;;;;6.94;68.54;98794.19;5110114;27;41580;-76
2021/05/24 03:34:02;;;;;;;2.40;1.40;;;;;;;6.97;68.39;98801.97;5091835;28;41796;-75
2021/05/24 03:36:29;;;;;;;2.43;2.23;;;;;;;6.94;68.14;98791.56;5108544;28;42050;-75
2021/05/24 03:38:56;;;;;;;1.63;1.53;;;;;;;6.87;68.41;98778.78;5109133;28;38974;-76
2021/05/24 03:41:25;;;;;;;1.93;1.57;;;;;;;7.06;68.41;98806.75;5109089;28;42571;-75
2021/05/24 03:43:52;;;;;;;2.23;1.60;;;;;;;7.11;68.42;98796.00;5091043;28;41766;-75
2021/05/24 03:46:19;;;;;;;1.60;1.50;;;;;;;7.13;68.18;98802.91;5108901;28;41703;-75
2021/05/24 03:48:46;;;;;;;1.60;1.50;;;;;;;7.10;69.11;98789.91;5109241;28;41435;-75
2021/05/24 03:51:13;;;;;;;1.80;1.40;;;;;;;7.16;68.78;98781.72;5108230;28;41484;-76
2021/05/24 03:53:40;;;;;;;2.30;1.30;;;;;;;7.26;69.70;98782.09;5091643;28;41684;-75
2021/05/24 03:56:09;;;;;;;2.00;1.90;;;;;;;7.33;69.33;98787.88;5090984;28;41256;-76
2021/05/24 03:58:37;;;;;;;2.00;1.80;;;;;;;7.39;68.90;98804.25;5109426;28;39155;-75
2021/05/24 04:01:04;;;;;;;1.70;1.60;;;;;;;7.47;68.85;98790.69;5090920;28;40661;-74
2021/05/24 04:03:31;;;;;;;1.53;1.43;;;;;;;7.51;69.07;98800.13;5110542;27;42680;-75
2021/05/24 04:06:00;;;;;;;2.03;1.50;;;;;;;7.51;68.95;98793.09;5091328;28;42204;-76
2021/05/24 04:08:34;;;;;;;2.10;1.87;;;;;;;7.52;69.75;98763.19;5091723;28;39246;-75
2021/05/24 04:11:02;;;;;;;2.97;2.13;;;;;;;7.70;70.05;98790.34;5108012;28;40741;-75
2021/05/24 04:13:30;;;;;;;2.93;2.00;;;;;;;7.74;70.00;98798.97;5109166;27;42734;-76
2021/05/24 04:15:58;;;;;;;1.90;1.77;;;;;;;7.84;69.68;98794.91;5109498;27;43036;-76
2021/05/24 04:18:28;;;;;;;2.00;1.80;;;;;;;7.88;69.49;98788.53;5090676;28;39890;-76
2021/05/24 04:20:56;;;;;;;1.40;1.30;;;;;;;7.87;69.52;98777.16;5108389;27;41580;-75
2021/05/24 04:23:23;;;;;;;2.40;1.50;;;;;;;8.04;69.15;98786.78;5109996;27;42773;-75
2021/05/24 04:25:50;;;;;;;2.87;1.80;;;;;;;8.08;68.87;98788.31;5109499;27;42863;-75
2021/05/24 04:28:17;;;;;;;1.73;1.50;;;;;;;8.12;68.97;98795.16;5142587;27;40671;-75
2021/05/24 04:30:46;;;;;;;1.60;1.50;;;;;;;8.15;68.99;98797.63;5107499;28;40657;-75
2021/05/24 04:33:14;;;;;;;2.37;2.10;;;;;;;8.16;68.98;98801.94;5091221;28;42023;-75
2021/05/24 04:35:41;;;;;;;2.03;1.80;;;;;;;8.23;68.98;98803.34;5089947;28;41427;-75
2021/05/24 04:38:08;;;;;;;2.47;1.70;;;;;;;8.33;68.94;98813.41;5106265;27;41536;-75
2021/05/24 04:40:36;;;;;;;2.70;1.60;;;;;;;8.38;68.82;98791.16;5105221;28;40550;-76
2021/05/24 04:43:03;;;;;;;2.00;1.80;;;;;;;8.59;68.53;98799.66;5105172;27;42954;-76
2021/05/24 04:45:31;;;;;;;1.80;1.70;;;;;;;8.74;68.37;98798.81;5106941;28;42436;-75
2021/05/24 04:47:58;;;;;;;2.50;1.77;;;;;;;8.83;68.63;98789.50;5107718;28;39830;-75
2021/05/24 04:50:26;;;;;;;1.70;1.60;;;;;;;8.96;68.39;98783.47;5108331;28;41492;-75
2021/05/24 04:52:53;;;;;;;2.20;1.87;;;;;;;8.98;68.60;98765.72;5107030;28;43939;-76
2021/05/24 04:55:21;;;;;;;2.97;1.80;;;;;;;9.07;68.18;98763.50;5108639;27;42985;-75
2021/05/24 04:57:48;;;;;;;3.33;1.90;;;;;;;9.19;68.25;98778.63;5109601;27;40658;-75
2021/05/24 05:00:15;;;;;;;1.97;1.77;;;;;;;9.31;68.11;98791.13;5106124;28;41724;-77
2021/05/24 05:02:43;;;;;;;2.00;1.80;;;;;;;9.41;68.04;98789.66;5125178;27;42690;-75
2021/05/24 05:05:12;;;;;;;2.50;1.60;;;;;;;9.53;67.89;98778.34;5106967;28;41099;-76
2021/05/24 05:07:40;;;;;;;1.87;1.63;;;;;;;9.67;68.04;98781.03;5107006;28;39712;-75
2021/05/24 05:10:08;;;;;;;2.30;2.10;;;;;;;9.77;67.92;98786.59;5090698;28;40654;-76
2021/05/24 05:12:36;;;;;;;2.37;2.17;;;;;;;9.80;67.88;98781.13;5106484;28;43558;-75
2021/05/24 05:15:04;;;;;;;2.00;1.77;;;;;;;9.90;67.72;98786.72;5090081;28;42149;-75
2021/05/24 05:17:31;;;;;;;3.20;2.20;;;;;;;9.98;67.47;98781.81;5085838;28;38884;-76
2021/05/24 05:19:58;;;;;;;3.40;2.00;;;;;;;10.06;67.46;98784.84;5103760;28;41540;-75
2021/05/24 05:22:25;;;;;;;1.80;1.70;;;;;;;10.18;67.36;98776.16;5093375;28;42631;-76
2021/05/24 05:24:54;;;;;;;1.90;1.70;;;;;;;10.29;67.29;98771.06;5106579;28;42921;-75
2021/05/24 05:27:22;;;;;;;1.80;1.67;;;;;;;10.33;67.49;98759.34;5091063;28;39855;-75
2021/05/24 05:29:49;;;;;;;2.97;1.90;;;;;;;10.49;67.07;98772.47;5105680;28;42425;-76
2021/05/24 05:32:16;;;;;;;2.37;2.17;;;;;;;10.58;67.17;98757.78;5090813;28;45432;-75
2021/05/24 05:34:43;;;;;;;3.43;1.83;;;;;;;10.69;66.78;98768.53;5105861;28;42984;-76
2021/05/24 05:37:11;;;;;;;2.40;1.90;;;;;;;10.79;66.72;98762.53;5108077;27;39991;-76
2021/05/24 05:39:38;;;;;;;2.17;1.93;;;;;;;10.91;66.52;98755.59;5112212;27;42524;-75
2021/05/24 05:42:06;;;;;;;2.27;2.03;;;;;;;11.10;66.33;98764.03;5112010;27;42819;-76
2021/05/24 05:44:34;;;;;;;3.47;2.53;;;;;;;11.22;66.02;98764.19;5112432;27;42132;-76
2021/05/24 05:47:01;;;;;;;2.67;2.20;;;;;;;11.30;65.88;98756.56;5125407;27;39104;-75
2021/05/24 05:49:28;;;;;;;3.30;2.03;;;;;;;11.45;65.48;98766.13;5111049;28;41662;-75
2021/05/24 05:51:55;;;;;;;2.53;2.07;;;;;;;11.47;65.30;98743.88;5110776;28;42554;-75
2021/05/24 05:54:22;;;;;;;2.40;2.20;;;;;;;11.66;65.33;98753.22;5110383;28;42916;-75
2021/05/24 05:56:49;;;;;;;2.40;2.20;;;;;;;11.81;65.14;98750.41;5108092;28;39821;-75
2021/05/24 05:59:20;;;;;;;3.10;2.07;;;;;;;11.96;65.06;98744.97;5109398;28;41771;-76
2021/05/24 06:01:47;;;;;;;4.70;1.70;;;;;;;12.16;64.78;98750.56;5092004;28;42613;-76
2021/05/24 06:04:14;;;;;;;2.37;1.80;;;;;;;12.22;64.32;98725.41;5108749;28;42191;-76
2021/05/24 06:06:41;;;;;;;3.23;2.10;;;;;;;12.58;64.32;98753.78;5111285;28;39955;-76
2021/05/24 06:09:08;;;;;;;2.73;2.40;;;;;;;12.75;64.05;98744.56;5110257;28;42467;-76
2021/05/24 06:11:36;;;;;;;2.63;2.10;;;;;;;12.92;63.90;98746.84;5111328;27;42711;-76
2021/05/24 06:14:03;;;;;;;3.27;2.50;;;;;;;13.09;63.52;98740.31;5111829;27;41775;-76
2021/05/24 06:16:31;;;;;;;2.73;2.40;;;;;;;13.34;63.18;98739.34;5111386;27;40560;-77
2021/05/24 06:18:58;;;;;;;2.40;2.20;;;;;;;13.56;63.04;98742.91;5092338;28;41463;-75
2021/05/24 06:21:25;;;;;;;2.23;1.70;;;;;;;13.79;62.45;98743.78;5110133;28;41726;-77
2021/05/24 06:23:52;;;;;;;2.43;1.40;;;;;;;13.95;61.64;98728.34;5111866;27;42798;-76
2021/05/24 06:26:20;;;;;;;2.00;1.50;;;;;;;14.16;61.60;98724.94;5093847;28;39917;-76
2021/05/24 06:28:47;;;;;;;2.27;1.43;;;;;;;14.34;61.50;98728.81;5093478;28;41612;-76
2021/05/24 06:31:14;;;;;;;2.07;1.97;;;;;;;14.47;60.09;98750.84;5093804;28;42840;-76
2021/05/24 06:33:42;;;;;;;1.40;1.30;;;;;;;14.58;59.97;98737.53;5111899;27;42365;-76
2021/05/24 06:36:09;;;;;;;2.13;1.57;;;;;;;14.74;60.06;98748.63;5110540;28;38962;-76
2021/05/24 06:38:36;;;;;;;2.40;1.90;;;;;;;14.89;59.29;98748.34;5111294;28;40733;-75
2021/05/24 06:41:03;;;;;;;2.10;1.80;;;;;;;15.01;59.02;98739.34;5111482;27;43442;-76
2021/05/24 06:43:30;;;;;;;1.57;1.47;;;;;;;15.14;59.17;98740.03;5111192;27;42180;-77
2021/05/24 06:45:58;;;;;;;2.00;1.80;;;;;;;15.18;58.02;98729.97;5111081;27;39974;-76
2021/05/24 06:48:25;;;;;;;1.73;1.63;;;;;;;15.43;57.92;98737.59;5094346;28;41248;-76
2021/05/24 06:50:53;;;;;;;1.60;1.50;;;;;;;15.56;56.94;98740.97;5110130;27;43506;-77
2021/05/24 06:53:20;;;;;;;8.50;1.60;;;;;;;15.60;56.69;98718.34;5089943;28;41079;-77
2021/05/24 06:55:47;;;;;;;2.17;1.50;;;;;;;15.78;56.95;98723.97;5073555;28;38806;-77
2021/05/24 06:58:14;;;;;;;2.70;1.43;;;;;;;15.96;57.19;98726.84;5072184;28;41604;-77
2021/05/24 07:00:41;;;;;;;1.50;1.40;;;;;;;16.19;56.46;98732.88;5090052;28;42746;-77
2021/05/24 07:03:08;;;;;;;1.50;1.40;;;;;;;16.40;56.24;98731.84;5090116;28;42298;-77
2021/05/24 07:05:36;;;;;;;2.90;1.60;;;;;;;16.49;55.40;98719.47;5103051;28;39976;-77
2021/05/24 07:08:04;;;;;;;2.03;1.60;;;;;;;16.73;55.53;98733.38;5110681;27;41678;-77
2021/05/24 07:10:31;;;;;;;1.57;1.40;;;;;;;16.98;54.83;98725.78;5089708;28;41699;-78
2021/05/24 07:12:58;;;;;;;2.23;1.60;;;;;;;17.31;53.54;98728.06;5089590;28;42357;-77
2021/05/24 07:15:25;;;;;;;3.17;1.60;;;;;;;17.54;53.88;98728.63;5088913;28;39838;-77
2021/05/24 07:17:53;;;;;;;1.40;1.30;;;;;;;17.76;53.83;98732.84;5106122;28;41625;-77
2021/05/24 07:20:20;;;;;;;1.87;1.37;;;;;;;17.87;52.33;98735.34;5089136;28;42561;-77
2021/05/24 07:22:47;;;;;;;1.80;1.33;;;;;;;18.06;51.83;98734.44;5088895;28;41653;-77
2021/05/24 07:25:16;;;;;;;1.80;1.60;;;;;;;18.34;51.03;98741.53;5108972;28;40431;-77
2021/05/24 07:27:43;;;;;;;1.60;1.50;;;;;;;18.44;49.67;98744.19;5108781;28;41769;-77
2021/05/24 07:30:11;;;;;;;1.30;1.20;;;;;;;18.52;50.30;98736.25;5108881;28;41441;-77
2021/05/24 07:32:39;;;;;;;1.87;1.50;;;;;;;18.72;49.82;98731.66;5108721;28;42229;-77
2021/05/24 07:35:07;;;;;;;2.13;1.37;;;;;;;18.80;49.88;98724.53;5092991;28;38944;-77
2021/05/24 07:37:34;;;;;;;3.57;1.20;;;;;;;18.98;49.77;98722.72;5110899;27;42516;-78
2021/05/24 07:40:03;;;;;;;1.67;1.30;;;;;;;19.06;49.51;98708.53;5091982;28;42034;-77
2021/05/24 07:42:32;;;;;;;1.57;1.47;;;;;;;19.30;48.49;98691.81;5109120;28;42608;-77
2021/05/24 07:44:59;;;;;;;1.73;1.37;;;;;;;20.54;47.11;98722.88;5091943;28;39370;-77
2021/05/24 07:47:27;;;;;;;1.60;1.50;;;;;;;20.98;45.35;98721.69;5108949;28;42183;-78
2021/05/24 07:49:54;;;;;;;1.37;1.27;;;;;;;21.84;43.06;98735.59;5109068;28;42631;-78
2021/05/24 07:52:21;;;;;;;1.37;1.23;;;;;;;23.09;41.57;98742.97;5126780;27;42190;-78
2021/05/24 07:54:49;;;;;;;1.67;1.40;;;;;;;23.84;39.87;98763.91;5110736;27;40876;-78
2021/05/24 07:57:16;;;;;;;1.40;1.10;;;;;;;25.32;37.63;98749.34;5108977;28;45480;-78
2021/05/24 07:59:44;;;;;;;2.43;1.30;;;;;;;26.11;35.70;98750.91;5109969;28;41931;-76
2021/05/24 08:02:11;;;;;;;1.37;1.13;;;;;;;26.57;35.05;98761.28;5091230;28;40647;-77
2021/05/24 08:04:38;;;;;;;1.30;1.10;;;;;;;26.28;35.08;98758.78;5110363;27;40689;-79
2021/05/24 08:07:05;;;;;;;2.53;1.30;;;;;;;26.04;32.64;98784.47;5108126;28;42543;-76
2021/05/24 08:09:32;;;;;;;1.40;0.90;;;;;;;26.40;32.89;98770.78;5110143;27;42608;-77
2021/05/24 08:12:00;;;;;;;1.47;1.07;;;;;;;26.42;31.56;98774.97;5091177;28;41650;-77
2021/05/24 08:14:27;;;;;;;2.60;1.13;;;;;;;25.99;32.21;98774.19;5110588;27;39864;-77
2021/05/24 08:16:55;;;;;;;1.10;1.00;;;;;;;25.91;33.83;98752.66;5091569;28;41651;-76
2021/05/24 08:19:22;;;;;;;3.10;1.20;;;;;;;26.69;31.59;98764.28;5108700;28;42730;-77
2021/05/24 08:21:51;;;;;;;1.40;1.07;;;;;;;27.28;31.17;98769.16;5091461;28;41446;-77
2021/05/24 08:24:19;;;;;;;1.20;1.00;;;;;;;27.93;30.70;98767.63;5109159;28;40452;-76
2021/05/24 08:26:47;;;;;;;1.73;1.33;;;;;;;28.57;28.69;98754.97;5108475;28;42066;-77
2021/05/24 08:29:14;;;;;;;1.63;0.90;;;;;;;28.35;28.88;98767.19;5108534;28;43515;-77
2021/05/24 08:31:42;;;;;;;0.93;0.73;;;;;;;27.72;29.32;98750.41;5091637;28;41321;-78
2021/05/24 08:34:10;;;;;;;0.83;0.83;;;;;;;27.12;31.26;98740.44;5092000;28;39714;-79
2021/05/24 08:36:38;;;;;;;0.97;0.87;;;;;;;27.45;30.44;98738.63;5109502;28;40940;-78
2021/05/24 08:39:06;;;;;;;1.40;0.80;;;;;;;28.92;29.69;98732.91;5110041;27;43552;-79
2021/05/24 08:41:34;;;;;;;0.83;0.80;;;;;;;30.55;26.26;98751.06;5109313;28;20226;-79
2021/05/24 08:44:01;;;;;;;1.77;1.10;;;;;;;32.08;24.78;98759.75;5108470;28;41564;-78
2021/05/24 08:46:29;;;;;;;2.13;1.10;;;;;;;33.86;22.54;98767.19;5109073;28;40920;-78
2021/05/24 08:48:56;;;;;;;3.30;1.00;;;;;;;34.69;21.94;98770.97;5109585;27;43491;-79
2021/05/24 08:51:25;;;;;;;0.80;0.80;;;;;;;35.59;20.69;98775.16;5110013;27;42291;-79
2021/05/24 08:53:52;;;;;;;1.20;0.97;;;;;;;35.67;19.78;98777.44;5108569;28;38923;-79
2021/05/24 08:56:19;;;;;;;2.10;1.07;;;;;;;34.95;20.97;98747.41;5107806;28;42873;-79
2021/05/24 08:58:47;;;;;;;1.63;1.10;;;;;;;34.38;22.46;98741.34;5091880;28;41699;-80
2021/05/24 09:01:14;;;;;;;0.90;0.80;;;;;;;33.95;23.21;98734.63;5107796;28;41914;-79
2021/05/24 09:03:46;;;;;;;1.10;0.90;;;;;;;33.27;23.22;98726.47;5107392;28;40337;-79
2021/05/24 09:06:13;;;;;;;1.23;0.90;;;;;;;32.66;24.62;98695.00;5107609;28;40788;-78
2021/05/24 09:08:43;;;;;;;1.43;0.93;;;;;;;32.69;24.23;98711.00;5091168;28;41906;-77
2021/05/24 09:11:25;;;;;;;2.57;1.10;;;;;;;32.22;24.64;98702.84;5106958;28;41889;-77
2021/05/24 09:13:52;;;;;;;2.23;0.80;;;;;;;31.94;25.23;98699.94;5106687;28;39919;-78
2021/05/24 09:16:27;;;;;;;1.70;0.80;;;;;;;31.78;24.35;98694.06;5090757;28;40890;-78
2021/05/24 09:19:12;;;;;;;1.93;1.03;;;;;;;31.87;24.15;98685.53;5107313;28;42978;-78
2021/05/24 09:21:40;;;;;;;0.73;0.70;;;;;;;32.10;23.07;98685.53;5141262;27;43033;-78
2021/05/24 09:24:21;;;;;;;0.73;0.73;;;;;;;32.66;22.17;98679.38;5127008;27;40048;-78
2021/05/24 09:26:48;;;;;;;1.17;0.90;;;;;;;33.16;22.36;98674.09;5128457;27;40799;-78
2021/05/24 09:29:17;;;;;;;1.07;0.73;;;;;;;33.30;22.63;98666.44;5111427;27;42239;-78
2021/05/24 09:31:44;;;;;;;0.73;0.60;;;;;;;33.30;21.82;98676.59;5120078;27;42787;-78
2021/05/24 09:34:11;;;;;;;1.27;0.80;;;;;;;32.74;23.38;98664.50;5091141;28;41045;-79
2021/05/24 09:36:38;;;;;;;0.90;0.90;;;;;;;32.12;23.55;98658.72;5108001;28;41950;-78
2021/05/24 09:39:07;;;;;;;0.80;0.70;;;;;;;31.77;23.82;98658.72;5090494;28;41945;-78
2021/05/24 09:41:42;;;;;;;1.00;0.90;;;;;;;31.51;23.60;98657.22;5107098;28;40978;-77
2021/05/24 09:44:19;;;;;;;1.30;0.83;;;;;;;31.70;25.51;98628.72;5091244;28;38598;-78
2021/05/24 09:46:48;;;;;;;1.17;0.90;;;;;;;31.99;25.14;98615.13;5108043;28;41357;-78
2021/05/24 09:49:15;;;;;;;1.03;0.70;;;;;;;32.84;24.25;98626.31;5090669;28;41796;-78
2021/05/24 09:51:46;;;;;;;1.33;1.00;;;;;;;33.52;23.45;98645.41;5091003;28;41554;-77
2021/05/24 09:54:13;;;;;;;1.03;0.80;;;;;;;32.65;23.38;98636.59;5107438;28;39925;-78
2021/05/24 09:56:46;;;;;;;0.70;0.70;;;;;;;32.34;24.46;98599.50;5106515;28;42327;-78
2021/05/24 09:59:16;;;;;;;1.33;0.80;;;;;;;32.21;23.89;98620.84;5107505;28;41769;-78
2021/05/24 10:01:47;;;;;;;0.63;0.57;;;;;;;32.08;23.83;98600.00;5107177;28;42763;-78
2021/05/24 10:04:16;;;;;;;1.03;0.60;;;;;;;31.88;24.85;98602.28;5090355;28;39013;-78
2021/05/24 10:06:43;;;;;;;1.33;1.00;;;;;;;31.56;24.02;98602.59;5106665;28;41469;-77
2021/05/24 10:09:13;;;;;;;0.77;0.60;;;;;;;31.13;25.29;98563.75;5107111;28;42761;-78
2021/05/24 10:11:43;;;;;;;0.63;0.60;;;;;;;31.38;25.88;98578.06;5107884;27;42096;-77
2021/05/24 10:14:12;;;;;;;0.73;0.73;;;;;;;31.51;24.99;98593.44;5105888;28;38568;-78
2021/05/24 10:16:43;;;;;;;1.37;0.80;;;;;;;31.73;24.23;98595.38;5090235;28;40671;-79
2021/05/24 10:19:12;;;;;;;3.20;1.20;;;;;;;32.06;23.24;98596.66;5106754;28;43043;-78
2021/05/24 10:21:40;;;;;;;0.50;0.50;;;;;;;32.07;24.19;98595.59;5107604;27;42888;-78
2021/05/24 10:24:08;;;;;;;1.93;0.87;;;;;;;31.98;22.91;98602.50;5109208;27;40789;-78
2021/05/24 10:26:38;;;;;;;0.80;0.77;;;;;;;31.51;25.11;98582.50;5109501;28;42648;-77
2021/05/24 10:29:06;;;;;;;0.70;0.60;;;;;;;31.40;25.27;98571.25;5109684;28;42451;-77
2021/05/24 10:31:35;;;;;;;2.43;0.80;;;;;;;31.42;24.13;98592.94;5112128;27;43142;-77
2021/05/24 10:34:10;;;;;;;0.97;0.87;;;;;;;31.40;24.65;98590.44;5110722;28;39835;-78
2021/05/24 10:36:40;;;;;;;2.17;0.80;;;;;;;31.40;24.33;98543.09;5110363;28;42068;-78
2021/05/24 10:39:11;;;;;;;0.77;0.77;;;;;;;32.18;25.07;98571.97;5111000;28;41655;-77
2021/05/24 10:41:44;;;;;;;1.10;0.73;;;;;;;32.31;25.04;98567.09;5145095;27;42310;-77
2021/05/24 10:44:13;;;;;;;1.07;0.60;;;;;;;32.11;24.67;98566.63;5098216;28;39880;-78
2021/05/24 10:46:41;;;;;;;1.00;0.70;;;;;;;31.90;24.95;98553.56;5122425;27;42312;-78
2021/05/24 10:49:18;;;;;;;0.87;0.70;;;;;;;31.55;24.25;98569.97;5120205;28;43881;-77
2021/05/24 10:51:53;;;;;;;0.83;0.80;;;;;;;31.36;25.54;98552.84;5122101;27;42468;-77
2021/05/24 10:54:26;;;;;;;1.90;0.80;;;;;;;31.29;25.49;98554.84;5123118;28;39104;-79
2021/05/24 10:57:12;;;;;;;1.33;0.60;;;;;;;31.12;25.22;98551.16;5122269;28;43246;-78
2021/05/24 10:59:50;;;;;;;1.63;0.80;;;;;;;30.98;24.92;98556.78;5115478;28;43799;-76
2021/05/24 11:02:26;;;;;;;0.50;0.50;;;;;;;30.92;25.28;98546.78;5110545;28;41055;-77
2021/05/24 11:04:55;;;;;;;0.50;0.50;;;;;;;30.97;25.28;98549.66;5127669;27;38996;-77
2021/05/24 11:07:24;;;;;;;1.20;0.77;;;;;;;30.90;25.35;98543.47;5109682;28;42207;-78
2021/05/24 11:09:51;;;;;;;0.60;0.60;;;;;;;30.73;24.67;98553.38;5111151;27;42812;-78
2021/05/24 11:12:29;;;;;;;0.50;0.50;;;;;;;30.66;25.43;98530.78;5110955;27;42190;-78
2021/05/24 11:15:10;;;;;;;0.50;0.50;;;;;;;30.63;25.54;98529.34;5111480;27;41534;-78
2021/05/24 11:18:12;;;;;;;1.13;0.80;;;;;;;30.55;24.90;98528.81;5110550;27;42475;-77
2021/05/24 11:20:44;;;;;;;3.40;0.70;;;;;;;30.54;25.49;98528.00;5109440;28;43739;-77
2021/05/24 11:23:20;;;;;;;1.67;0.50;;;;;;;30.57;24.81;98532.16;5110339;28;42259;-78
2021/05/24 11:25:53;;;;;;;1.37;0.87;;;;;;;30.48;24.89;98525.34;5110523;27;40613;-78
2021/05/24 11:28:22;;;;;;;0.60;0.50;;;;;;;30.21;25.26;98509.28;5109180;28;42544;-77
2021/05/24 11:31:10;;;;;;;1.10;0.70;;;;;;;30.00;24.81;98512.50;5092334;28;42153;-78
2021/05/24 11:33:39;;;;;;;0.57;0.50;;;;;;;29.99;25.36;98497.19;5111049;27;42132;-78
2021/05/24 11:36:07;;;;;;;0.67;0.67;;;;;;;29.87;24.74;98504.44;5110125;27;39958;-77
2021/05/24 11:38:36;;;;;;;0.47;0.47;;;;;;;29.81;24.83;98500.72;5110671;27;42228;-77
2021/05/24 11:41:21;;;;;;;0.90;0.60;;;;;;;29.77;24.88;98488.59;5110648;27;42609;-77
2021/05/24 11:43:54;;;;;;;1.20;0.70;;;;;;;29.74;25.37;98493.69;5109982;27;43060;-78